Time;durP1;ratioP1;P1;durP2;ratioP2;P2;SDS_P1;SDS_P2;PMS_P1;PMS_P2;Temp;Humidity;BMP_temperature;BMP_pressure;BME280_temperature;BME280_humidity;BME280_pressure;Samples;Min_cycle;Max_cycle;Signal;HPM_P1;HPM_P2
2022/07/08 00:04:53;;;;;;;4.75;3.92;;;16.10;99.90;;;;;;10355205;28;20227;-77
2022/07/08 00:10:15;;;;;;;4.10;3.67;;;16.20;99.90;;;;;;10341146;28;20287;-76
2022/07/08 00:15:36;;;;;;;4.95;4.43;;;16.20;99.90;;;;;;10355712;28;20191;-77
2022/07/08 00:20:58;;;;;;;5.35;4.18;;;16.20;99.90;;;;;;10354565;28;20439;-76
2022/07/08 00:26:19;;;;;;;4.80;4.35;;;16.30;99.90;;;;;;10334511;28;20227;-77
2022/07/08 00:31:41;;;;;;;4.65;3.78;;;16.20;99.90;;;;;;10354483;28;20213;-77
2022/07/08 00:37:03;;;;;;;4.20;3.83;;;16.20;99.90;;;;;;10354557;28;20194;-77
2022/07/08 00:42:25;;;;;;;5.32;4.15;;;16.20;99.90;;;;;;10354709;28;20262;-77
2022/07/08 00:47:46;;;;;;;4.00;3.60;;;16.20;99.90;;;;;;10352817;28;20298;-76
2022/07/08 00:53:08;;;;;;;4.90;3.88;;;16.20;99.90;;;;;;10314064;28;20199;-75
2022/07/08 00:58:32;;;;;;;5.40;3.55;;;16.20;99.90;;;;;;10313828;28;20202;-77
2022/07/08 01:03:54;;;;;;;4.75;4.07;;;16.20;99.90;;;;;;10313473;28;20216;-77
2022/07/08 01:09:16;;;;;;;3.72;3.00;;;16.20;99.90;;;;;;10337434;28;20386;-77
2022/07/08 01:14:38;;;;;;;5.32;3.38;;;16.20;99.90;;;;;;10353921;28;20488;-77
2022/07/08 01:19:59;;;;;;;5.15;3.75;;;16.20;99.90;;;;;;10355007;28;20255;-77
2022/07/08 01:25:21;;;;;;;6.20;3.58;;;16.20;99.90;;;;;;10359897;28;20426;-78
2022/07/08 01:30:43;;;;;;;4.07;3.40;;;16.20;99.90;;;;;;10360567;28;20207;-77
2022/07/08 01:36:05;;;;;;;3.80;3.50;;;16.20;99.90;;;;;;10360642;28;20195;-77
2022/07/08 01:41:27;;;;;;;3.88;3.47;;;16.30;99.90;;;;;;10360302;28;20193;-77
2022/07/08 01:46:48;;;;;;;3.60;3.30;;;16.20;99.90;;;;;;10359588;28;20252;-76
2022/07/08 01:52:10;;;;;;;3.97;3.42;;;16.10;99.90;;;;;;10343924;28;20191;-77
2022/07/08 01:57:34;;;;;;;5.00;3.88;;;16.20;99.90;;;;;;10358753;28;20263;-76
2022/07/08 02:02:55;;;;;;;3.90;3.50;;;16.20;99.90;;;;;;10359198;28;20216;-77
2022/07/08 02:08:16;;;;;;;4.90;3.85;;;16.10;99.90;;;;;;10359323;28;20201;-77
2022/07/08 02:13:39;;;;;;;5.15;4.13;;;16.20;99.90;;;;;;10324724;28;20208;-77
2022/07/08 02:19:00;;;;;;;4.80;4.30;;;16.20;99.90;;;;;;10342697;28;20382;-77
2022/07/08 02:24:22;;;;;;;5.38;4.82;;;16.10;99.90;;;;;;10343798;28;20517;-77
2022/07/08 02:29:44;;;;;;;5.38;4.68;;;16.10;99.90;;;;;;10356687;28;20228;-77
2022/07/08 02:35:06;;;;;;;4.93;4.47;;;16.10;99.90;;;;;;10343324;28;20208;-77
2022/07/08 02:40:28;;;;;;;4.88;3.97;;;16.10;99.90;;;;;;10351946;28;20193;-76
2022/07/08 02:45:50;;;;;;;5.18;4.68;;;16.20;99.90;;;;;;10317465;28;20224;-77
2022/07/08 02:51:12;;;;;;;4.53;4.13;;;16.20;99.90;;;;;;10319054;28;20500;-78
2022/07/08 02:56:34;;;;;;;4.28;3.88;;;16.30;99.90;;;;;;10316113;28;20201;-77
2022/07/08 03:01:56;;;;;;;6.30;4.78;;;16.20;99.90;;;;;;10302572;28;20504;-78
2022/07/08 03:07:18;;;;;;;7.18;4.60;;;16.20;99.90;;;;;;10325179;28;20228;-77
2022/07/08 03:12:40;;;;;;;4.75;4.00;;;16.30;99.90;;;;;;10357029;28;20199;-77
2022/07/08 03:18:02;;;;;;;4.72;4.25;;;16.30;99.90;;;;;;10356606;28;20203;-78
2022/07/08 03:23:23;;;;;;;6.85;5.10;;;16.30;99.90;;;;;;10356277;28;20195;-76
2022/07/08 03:28:45;;;;;;;6.43;3.88;;;16.40;99.90;;;;;;10355011;28;20204;-77
2022/07/08 03:34:06;;;;;;;5.88;4.47;;;16.30;99.90;;;;;;10355928;28;20581;-78
2022/07/08 03:39:28;;;;;;;4.40;4.00;;;16.40;99.90;;;;;;10355239;28;20268;-78
2022/07/08 03:44:49;;;;;;;5.20;4.43;;;16.40;99.90;;;;;;10341391;28;20249;-77
2022/07/08 03:50:11;;;;;;;4.00;3.63;;;16.40;99.90;;;;;;10314070;28;20603;-77
2022/07/08 03:55:32;;;;;;;5.15;3.90;;;16.50;99.90;;;;;;10314945;28;20260;-78
2022/07/08 04:00:54;;;;;;;4.47;3.55;;;16.50;99.90;;;;;;10314964;28;20523;-77
2022/07/08 04:06:15;;;;;;;5.65;3.60;;;16.60;99.90;;;;;;10314884;28;20283;-77
2022/07/08 04:11:38;;;;;;;4.28;3.60;;;16.50;99.90;;;;;;10351412;28;20235;-77
2022/07/08 04:16:59;;;;;;;3.40;3.00;;;16.60;99.90;;;;;;10354015;28;20199;-78
2022/07/08 04:22:21;;;;;;;4.50;3.70;;;16.60;99.90;;;;;;10338883;28;20495;-77
2022/07/08 04:27:42;;;;;;;4.75;3.45;;;16.70;99.90;;;;;;10353532;28;20228;-77
2022/07/08 04:33:05;;;;;;;4.13;3.53;;;16.70;99.90;;;;;;10354686;28;20672;-77
2022/07/08 04:38:27;;;;;;;6.55;3.78;;;16.70;99.90;;;;;;10354104;28;20238;-78
2022/07/08 04:43:48;;;;;;;5.28;4.18;;;16.70;99.90;;;;;;10315424;28;20208;-77
2022/07/08 04:49:10;;;;;;;4.15;3.42;;;16.80;99.90;;;;;;10299047;28;20295;-78
2022/07/08 04:54:39;;;;;;;4.22;3.58;;;16.80;99.90;;;;;;10315954;28;20197;-78
2022/07/08 05:00:01;;;;;;;6.90;3.30;;;16.80;99.90;;;;;;10306941;28;20209;-78
2022/07/08 05:05:23;;;;;;;3.08;2.78;;;16.90;99.90;;;;;;10320204;28;20232;-77
2022/07/08 05:10:44;;;;;;;2.75;2.35;;;16.90;99.90;;;;;;10347310;28;20422;-78
2022/07/08 05:16:05;;;;;;;2.75;2.13;;;17.00;99.90;;;;;;10360047;28;20284;-78
2022/07/08 05:21:27;;;;;;;1.48;1.38;;;17.00;99.90;;;;;;10359652;28;20271;-76
2022/07/08 05:26:48;;;;;;;1.60;1.50;;;17.00;99.90;;;;;;10359240;28;20224;-78
2022/07/08 05:32:09;;;;;;;4.30;1.40;;;17.00;99.90;;;;;;10359346;28;20200;-78
2022/07/08 05:37:32;;;;;;;8.48;1.40;;;17.00;99.90;;;;;;10369397;28;20205;-77
2022/07/08 05:42:53;;;;;;;1.15;1.02;;;17.10;99.90;;;;;;10341016;28;20547;-78
2022/07/08 05:48:14;;;;;;;1.40;1.25;;;17.10;99.90;;;;;;10319290;28;20237;-78
2022/07/08 05:53:36;;;;;;;3.47;1.20;;;17.20;99.90;;;;;;10318305;28;20489;-76
2022/07/08 05:58:57;;;;;;;4.35;1.75;;;17.20;99.90;;;;;;10319002;28;20218;-76
2022/07/08 06:04:19;;;;;;;1.30;1.17;;;17.40;99.90;;;;;;10318925;28;20309;-77
2022/07/08 06:09:41;;;;;;;1.30;1.20;;;17.70;99.90;;;;;;10343301;28;20279;-77
2022/07/08 06:15:03;;;;;;;2.10;1.10;;;17.80;99.90;;;;;;10357883;28;20220;-77
2022/07/08 06:20:24;;;;;;;1.33;1.13;;;17.90;99.90;;;;;;10343504;28;20398;-77
2022/07/08 06:25:45;;;;;;;5.10;0.90;;;17.90;99.90;;;;;;10358049;28;20218;-77
2022/07/08 06:31:07;;;;;;;1.60;1.00;;;18.20;99.90;;;;;;10358191;28;20189;-77
2022/07/08 06:36:28;;;;;;;2.78;1.15;;;18.20;99.90;;;;;;10357722;28;20612;-78
2022/07/08 06:41:50;;;;;;;2.20;1.08;;;18.40;99.90;;;;;;10355917;28;20265;-77
2022/07/08 06:47:11;;;;;;;1.85;0.90;;;18.80;99.90;;;;;;10355816;28;20241;-78
2022/07/08 06:52:35;;;;;;;6.07;0.98;;;18.80;99.90;;;;;;10357034;28;20483;-77
2022/07/08 06:57:58;;;;;;;0.93;0.82;;;18.90;99.90;;;;;;10332005;28;20245;-77
2022/07/08 07:03:19;;;;;;;1.23;0.77;;;18.90;99.90;;;;;;10351015;28;20201;-75
2022/07/08 07:08:41;;;;;;;1.90;0.60;;;18.70;99.90;;;;;;10350197;28;20224;-76
2022/07/08 07:14:03;;;;;;;2.80;0.63;;;18.50;99.90;;;;;;10331146;28;20205;-77
2022/07/08 07:19:24;;;;;;;3.50;1.30;;;18.30;99.90;;;;;;10338438;28;20202;-77
2022/07/08 07:24:46;;;;;;;1.65;0.70;;;18.40;99.90;;;;;;10312067;28;20276;-76
2022/07/08 07:30:08;;;;;;;1.73;0.80;;;18.60;99.90;;;;;;10329229;28;20186;-82
2022/07/08 07:35:30;;;;;;;0.93;0.68;;;18.60;99.90;;;;;;10365176;28;20290;-78
2022/07/08 07:40:51;;;;;;;1.38;0.68;;;18.60;99.90;;;;;;10337568;28;20413;-77
2022/07/08 07:46:13;;;;;;;1.27;0.57;;;18.70;94.60;;;;;;10350061;28;20232;-78
2022/07/08 07:51:35;;;;;;;0.75;0.63;;;18.70;78.30;;;;;;10333368;28;20252;-77
2022/07/08 07:56:56;;;;;;;0.85;0.65;;;18.60;93.20;;;;;;10348535;28;20201;-77
2022/07/08 08:02:18;;;;;;;0.60;0.40;;;18.60;98.60;;;;;;10322176;28;20206;-76
2022/07/08 08:07:41;;;;;;;0.40;0.30;;;18.30;85.30;;;;;;10321101;28;20225;-80
2022/07/08 08:13:02;;;;;;;3.00;0.52;;;18.00;92.10;;;;;;10318129;28;20554;-78
2022/07/08 08:18:24;;;;;;;0.40;0.40;;;17.90;99.90;;;;;;10326965;28;20200;-79
2022/07/08 08:23:45;;;;;;;1.48;0.50;;;17.80;99.90;;;;;;10362044;28;20280;-78
2022/07/08 08:29:07;;;;;;;0.82;0.50;;;17.70;99.90;;;;;;10364594;28;20384;-77
2022/07/08 08:34:28;;;;;;;0.45;0.45;;;17.80;99.90;;;;;;10371954;28;20215;-81
2022/07/08 08:39:50;;;;;;;0.50;0.50;;;17.80;99.90;;;;;;10356519;28;20205;-78
2022/07/08 08:45:11;;;;;;;0.93;0.73;;;17.90;99.90;;;;;;10357045;28;20530;-78
2022/07/08 08:50:53;;;;;;;1.65;0.95;;;18.20;99.90;;;;;;10352756;28;20236;-76
2022/07/08 08:56:16;;;;;;;1.23;0.60;;;18.50;99.90;;;;;;10338719;28;20515;-78
2022/07/08 09:01:39;;;;;;;1.92;0.80;;;18.60;99.90;;;;;;10346724;28;20233;-77
2022/07/08 09:07:01;;;;;;;1.15;0.60;;;18.70;99.90;;;;;;10325222;28;20306;-76
2022/07/08 09:12:25;;;;;;;2.55;0.80;;;18.60;99.90;;;;;;10360421;28;20209;-76
2022/07/08 09:17:47;;;;;;;0.85;0.55;;;18.40;99.90;;;;;;10353424;28;20208;-77
2022/07/08 09:23:14;;;;;;;1.27;0.70;;;18.30;99.90;;;;;;10352379;28;20217;-75
2022/07/08 09:28:43;;;;;;;1.15;0.50;;;18.20;99.90;;;;;;10351321;28;20240;-79
2022/07/08 09:34:16;;;;;;;2.22;0.50;;;18.10;99.90;;;;;;10348693;28;20818;-75
2022/07/08 09:39:38;;;;;;;0.93;0.70;;;18.30;99.90;;;;;;10310089;28;20496;-75
2022/07/08 09:44:59;;;;;;;8.00;0.70;;;18.30;99.30;;;;;;10321835;28;20314;-79
2022/07/08 09:50:31;;;;;;;1.27;0.73;;;18.30;99.90;;;;;;10275041;28;1309268;-77
2022/07/08 09:56:13;;;;;;;1.00;0.40;;;18.30;99.90;;;;;;10314887;28;20194;-76
2022/07/08 10:01:34;;;;;;;0.52;0.47;;;18.40;99.90;;;;;;10347321;28;20224;-77
2022/07/08 10:06:57;;;;;;;3.05;1.00;;;18.80;99.90;;;;;;10360272;28;20472;-81
2022/07/08 10:12:19;;;;;;;0.85;0.70;;;19.20;99.90;;;;;;10393823;28;20219;-77
2022/07/08 10:17:45;;;;;;;3.22;0.80;;;19.50;99.90;;;;;;10378852;28;20222;-78
2022/07/08 10:23:11;;;;;;;0.90;0.50;;;19.70;99.90;;;;;;10325396;28;20240;-76
2022/07/08 10:28:41;;;;;;;2.47;0.55;;;20.10;99.90;;;;;;10344414;28;20230;-76
2022/07/08 10:34:03;;;;;;;1.33;0.60;;;20.80;99.90;;;;;;10334496;28;20229;-76
2022/07/08 10:39:37;;;;;;;0.40;0.30;;;21.00;99.90;;;;;;10352814;28;20218;-74
2022/07/08 10:44:58;;;;;;;1.08;0.60;;;21.70;96.30;;;;;;10352901;28;20214;-75
2022/07/08 10:50:23;;;;;;;0.45;0.45;;;22.20;93.50;;;;;;10349304;28;20547;-79
2022/07/08 10:55:46;;;;;;;4.47;1.02;;;22.00;90.80;;;;;;10301368;28;20252;-76
2022/07/08 11:01:23;;;;;;;1.02;0.40;;;21.30;90.70;;;;;;10347130;28;20447;-79
2022/07/08 11:06:44;;;;;;;0.40;0.40;;;20.80;94.40;;;;;;10349129;28;20333;-78
2022/07/08 11:12:14;;;;;;;0.47;0.40;;;20.50;93.90;;;;;;10347121;28;20256;-76
2022/07/08 11:17:37;;;;;;;2.63;0.70;;;20.50;95.50;;;;;;10335796;28;20206;-77
2022/07/08 11:23:04;;;;;;;0.40;0.40;;;20.90;96.40;;;;;;10315056;28;20269;-77
2022/07/08 11:28:26;;;;;;;1.55;0.85;;;21.10;94.40;;;;;;10310486;28;20226;-79
2022/07/08 11:33:47;;;;;;;1.30;0.50;;;20.90;95.90;;;;;;10332026;28;20387;-76
2022/07/08 11:39:09;;;;;;;1.17;0.57;;;20.90;95.80;;;;;;10368172;28;20432;-78
2022/07/08 11:44:30;;;;;;;0.70;0.35;;;21.50;88.10;;;;;;10391903;28;20483;-78
2022/07/08 11:49:52;;;;;;;0.95;0.40;;;22.20;79.20;;;;;;10404604;28;20512;-77
2022/07/08 11:55:13;;;;;;;2.65;0.43;;;22.10;70.10;;;;;;10328297;28;20432;-76
2022/07/08 12:00:35;;;;;;;6.45;0.60;;;22.10;71.10;;;;;;10345649;28;20218;-76
2022/07/08 12:05:56;;;;;;;2.38;1.10;;;21.90;80.60;;;;;;10348393;28;20249;-76
2022/07/08 12:11:20;;;;;;;1.40;0.45;;;21.90;85.30;;;;;;10308719;28;20194;-77
2022/07/08 12:16:47;;;;;;;1.05;0.60;;;21.50;90.80;;;;;;10313842;28;20546;-77
2022/07/08 12:22:12;;;;;;;0.75;0.70;;;21.00;93.10;;;;;;10334158;28;20205;-78
2022/07/08 12:27:33;;;;;;;2.30;1.05;;;20.80;93.60;;;;;;10348378;28;20238;-78
2022/07/08 12:33:00;;;;;;;0.88;0.47;;;20.90;92.80;;;;;;10348175;28;20205;-77
2022/07/08 12:38:30;;;;;;;2.60;0.90;;;21.40;90.20;;;;;;10345220;28;20201;-77
2022/07/08 12:43:53;;;;;;;1.45;0.82;;;21.70;89.00;;;;;;10343526;28;20213;-78
2022/07/08 12:49:25;;;;;;;12.45;1.05;;;21.60;88.00;;;;;;10347913;28;20253;-78
2022/07/08 12:54:47;;;;;;;4.47;0.60;;;21.50;89.70;;;;;;10310438;28;20471;-77
2022/07/08 13:00:09;;;;;;;2.22;0.80;;;21.60;90.00;;;;;;10339585;28;20276;-77
2022/07/08 13:05:31;;;;;;;0.52;0.45;;;22.10;88.30;;;;;;10349737;28;20225;-78
2022/07/08 13:10:52;;;;;;;3.33;0.90;;;22.20;81.50;;;;;;10383129;28;20224;-78
2022/07/08 13:16:14;;;;;;;2.50;0.82;;;22.50;86.30;;;;;;10330396;28;20190;-78
2022/07/08 13:21:36;;;;;;;2.42;0.80;;;22.60;81.50;;;;;;10339458;28;20189;-78
2022/07/08 13:26:57;;;;;;;0.75;0.63;;;22.90;74.30;;;;;;10315727;28;20218;-78
2022/07/08 13:32:19;;;;;;;1.42;0.73;;;22.40;70.60;;;;;;10314222;28;20198;-78
2022/07/08 13:37:40;;;;;;;4.18;1.00;;;22.00;77.50;;;;;;10324539;28;20202;-78
2022/07/08 13:43:03;;;;;;;6.38;1.13;;;21.50;85.80;;;;;;10366182;28;20198;-77
2022/07/08 13:48:24;;;;;;;4.47;1.30;;;21.30;90.50;;;;;;10356296;28;20299;-77
2022/07/08 13:53:48;;;;;;;1.67;0.73;;;21.10;92.50;;;;;;10352136;28;20205;-78
2022/07/08 13:59:10;;;;;;;4.53;1.77;;;21.10;93.90;;;;;;10343968;28;20209;-78
2022/07/08 14:04:33;;;;;;;3.17;1.05;;;20.90;96.30;;;;;;10332691;28;20191;-77
2022/07/08 14:09:54;;;;;;;4.65;1.60;;;20.70;96.20;;;;;;10371064;28;20205;-77
2022/07/08 14:15:16;;;;;;;3.95;1.45;;;20.40;1.00;;;;;;10370817;28;20196;-78
2022/07/08 14:20:37;;;;;;;4.38;1.45;;;19.90;1.00;;;;;;10314915;28;20206;-78
2022/07/08 14:26:00;;;;;;;6.72;1.85;;;19.70;1.00;;;;;;10321294;28;20230;-77
2022/07/08 14:31:21;;;;;;;5.65;1.70;;;20.10;1.00;;;;;;10336305;28;20488;-77
2022/07/08 14:36:43;;;;;;;6.35;2.20;;;20.50;1.00;;;;;;10318914;28;20206;-78
2022/07/08 14:42:05;;;;;;;6.60;1.98;;;20.40;1.00;;;;;;10352457;28;20419;-77
2022/07/08 14:47:27;;;;;;;7.53;1.92;;;20.20;1.00;;;;;;10351505;28;20626;-77
2022/07/08 14:52:48;;;;;;;4.50;1.73;;;20.00;1.00;;;;;;10331249;28;20289;-77
2022/07/08 14:58:10;;;;;;;5.07;1.40;;;20.10;1.00;;;;;;10347656;28;20259;-77
2022/07/08 15:03:31;;;;;;;7.35;1.65;;;20.50;1.00;;;;;;10334198;28;20240;-78
2022/07/08 15:08:54;;;;;;;4.43;1.50;;;20.70;1.00;;;;;;10375802;28;20522;-78
2022/07/08 15:14:15;;;;;;;5.28;1.63;;;20.60;1.00;;;;;;10395550;28;20213;-77
2022/07/08 15:19:37;;;;;;;3.55;1.25;;;20.50;99.90;;;;;;10394951;28;20392;-78
2022/07/08 15:24:58;;;;;;;3.05;1.08;;;20.50;99.90;;;;;;10384837;28;20190;-78
2022/07/08 15:30:23;;;;;;;2.30;1.02;;;20.50;99.90;;;;;;10354565;28;20265;-78
2022/07/08 15:35:44;;;;;;;2.65;0.80;;;20.50;99.90;;;;;;10352842;28;20535;-77
2022/07/08 15:41:06;;;;;;;3.20;0.90;;;20.40;99.90;;;;;;10352485;28;20205;-78
2022/07/08 15:46:28;;;;;;;2.30;1.33;;;20.50;1.00;;;;;;10331956;28;20218;-78
2022/07/08 15:51:50;;;;;;;5.20;1.30;;;20.40;99.90;;;;;;10314594;28;20271;-78
2022/07/08 15:57:11;;;;;;;3.85;1.52;;;20.30;99.90;;;;;;10341424;28;20481;-79
2022/07/08 16:02:33;;;;;;;6.88;1.60;;;20.20;99.90;;;;;;10362905;28;20198;-79
2022/07/08 16:07:55;;;;;;;4.15;1.58;;;20.20;99.90;;;;;;10359504;28;20455;-78
2022/07/08 16:13:16;;;;;;;6.78;1.95;;;20.10;99.90;;;;;;10391495;28;20193;-78
2022/07/08 16:18:37;;;;;;;10.40;1.50;;;20.10;99.90;;;;;;10311993;28;20423;-77
2022/07/08 16:23:59;;;;;;;5.00;1.98;;;19.90;99.90;;;;;;10314311;28;20186;-77
2022/07/08 16:29:24;;;;;;;9.50;2.13;;;19.80;99.90;;;;;;10314264;28;20249;-77
2022/07/08 16:34:45;;;;;;;5.70;1.50;;;19.90;99.90;;;;;;10329895;28;20262;-78
2022/07/08 16:40:07;;;;;;;5.18;1.38;;;19.80;99.90;;;;;;10315065;28;20190;-78
2022/07/08 16:45:28;;;;;;;8.15;1.77;;;19.80;99.90;;;;;;10314587;28;20497;-77
2022/07/08 16:50:50;;;;;;;5.53;1.15;;;19.60;18.20;;;;;;10328774;28;20246;-78
2022/07/08 16:56:11;;;;;;;6.18;1.75;;;19.60;1.00;;;;;;10338805;28;20505;-78
2022/07/08 17:01:33;;;;;;;8.85;1.67;;;19.40;1.00;;;;;;10360119;28;20493;-78
2022/07/08 17:06:55;;;;;;;7.50;1.80;;;19.40;1.00;;;;;;10365665;28;20232;-79
2022/07/08 17:12:16;;;;;;;5.57;1.73;;;19.30;1.00;;;;;;10402109;28;20254;-78
2022/07/08 17:17:38;;;;;;;5.00;1.27;;;19.30;1.00;;;;;;10341947;28;20501;-77
2022/07/08 17:22:59;;;;;;;6.57;2.20;;;19.20;1.00;;;;;;10328856;28;20218;-77
2022/07/08 17:28:21;;;;;;;6.90;2.00;;;19.10;1.00;;;;;;10319572;28;20604;-77
2022/07/08 17:33:43;;;;;;;3.53;1.45;;;19.00;1.00;;;;;;10319564;28;20198;-78
2022/07/08 17:39:06;;;;;;;3.55;1.42;;;18.80;1.00;;;;;;10337239;28;20190;-78
2022/07/08 17:44:27;;;;;;;8.15;1.92;;;18.70;1.00;;;;;;10320049;28;20194;-78
2022/07/08 17:49:48;;;;;;;5.68;1.98;;;18.60;83.70;;;;;;10318655;28;20230;-78
2022/07/08 17:55:10;;;;;;;3.60;1.50;;;18.50;70.20;;;;;;10329204;28;20202;-77
2022/07/08 18:00:31;;;;;;;7.75;1.80;;;18.40;1.00;;;;;;10358336;28;20207;-78
2022/07/08 18:05:53;;;;;;;4.38;1.60;;;18.30;7.50;;;;;;10359677;28;20239;-79
2022/07/08 18:11:15;;;;;;;5.75;1.58;;;18.40;1.00;;;;;;10350393;28;20193;-78
2022/07/08 18:16:36;;;;;;;5.53;1.90;;;18.10;24.00;;;;;;10359147;28;20524;-77
2022/07/08 18:21:58;;;;;;;2.75;1.42;;;18.00;99.90;;;;;;10357936;28;20200;-78
2022/07/08 18:27:19;;;;;;;6.20;1.38;;;17.90;1.00;;;;;;10358451;28;20416;-77
2022/07/08 18:32:42;;;;;;;3.83;1.25;;;17.90;1.00;;;;;;10358361;28;20264;-77
2022/07/08 18:38:04;;;;;;;5.82;1.80;;;17.80;1.00;;;;;;10337235;28;20222;-78
2022/07/08 18:43:25;;;;;;;6.35;1.55;;;17.70;1.00;;;;;;10316524;28;20194;-78
2022/07/08 18:48:47;;;;;;;6.20;1.70;;;17.70;99.90;;;;;;10317210;28;20570;-78
2022/07/08 18:54:09;;;;;;;5.65;1.42;;;17.60;1.00;;;;;;10318301;28;20421;-78
2022/07/08 18:59:31;;;;;;;7.22;1.23;;;17.40;1.00;;;;;;10356841;28;20205;-78
2022/07/08 19:04:52;;;;;;;4.53;1.40;;;17.40;28.70;;;;;;10357216;28;20289;-78
2022/07/08 19:10:17;;;;;;;5.25;1.45;;;17.30;99.90;;;;;;10334539;28;20226;-77
2022/07/08 19:15:38;;;;;;;2.85;1.35;;;17.20;99.50;;;;;;10315982;28;20218;-79
2022/07/08 19:21:00;;;;;;;5.47;1.30;;;17.10;99.90;;;;;;10320677;28;20190;-77
2022/07/08 19:26:21;;;;;;;5.75;1.58;;;17.10;99.90;;;;;;10314716;28;20479;-78
2022/07/08 19:31:43;;;;;;;5.15;1.48;;;17.00;99.90;;;;;;10316047;28;20413;-77
2022/07/08 19:37:04;;;;;;;5.22;1.65;;;16.90;99.90;;;;;;10300914;28;20277;-78
2022/07/08 19:42:25;;;;;;;4.00;1.50;;;16.80;1.00;;;;;;10300528;28;20277;-78
2022/07/08 19:47:47;;;;;;;5.25;1.98;;;16.80;1.00;;;;;;10314979;28;20243;-79
2022/07/08 19:53:25;;;;;;;3.63;1.42;;;16.70;1.00;;;;;;10319655;28;20193;-77
2022/07/08 19:58:46;;;;;;;4.18;1.40;;;16.60;1.00;;;;;;10353958;28;20243;-78
2022/07/08 20:04:08;;;;;;;2.50;1.38;;;16.60;15.80;;;;;;10354406;28;20192;-77
2022/07/08 20:09:33;;;;;;;6.18;1.92;;;16.50;50.00;;;;;;10381740;28;20501;-77
2022/07/08 20:14:56;;;;;;;6.28;1.67;;;16.30;1.00;;;;;;10374328;28;20264;-77
2022/07/08 20:20:19;;;;;;;6.68;1.85;;;16.20;1.00;;;;;;10316461;28;20224;-78
2022/07/08 20:25:40;;;;;;;4.65;1.52;;;16.20;1.00;;;;;;10364286;28;20196;-77
2022/07/08 20:31:02;;;;;;;10.23;2.63;;;16.10;1.00;;;;;;10363445;28;20246;-76
2022/07/08 20:36:23;;;;;;;2.95;1.50;;;16.10;1.00;;;;;;10362839;28;20203;-78
2022/07/08 20:47:25;;;;;;;7.40;1.98;;;16.20;1.00;;;;;;10362268;28;20562;-77
2022/07/08 20:52:47;;;;;;;3.97;2.08;;;16.10;1.00;;;;;;10349130;28;20190;-77
2022/07/08 20:58:10;;;;;;;4.00;1.63;;;16.10;1.00;;;;;;10353748;28;20201;-77
2022/07/08 21:03:31;;;;;;;6.15;1.98;;;16.10;1.00;;;;;;10362254;28;20223;-77
2022/07/08 21:08:53;;;;;;;7.28;2.20;;;16.00;16.20;;;;;;10364611;28;20230;-78
2022/07/08 21:14:15;;;;;;;5.38;1.67;;;16.00;35.20;;;;;;10384820;28;20242;-77
2022/07/08 21:19:36;;;;;;;5.50;2.08;;;16.10;35.70;;;;;;10360523;28;20276;-77
2022/07/08 21:24:58;;;;;;;5.13;2.00;;;16.00;1.00;;;;;;10360226;28;20208;-77
2022/07/08 21:30:19;;;;;;;3.58;1.73;;;16.00;88.20;;;;;;10360840;28;20255;-78
2022/07/08 21:35:40;;;;;;;5.95;1.73;;;15.90;1.00;;;;;;10343660;28;20197;-78
2022/07/08 21:41:02;;;;;;;4.78;2.03;;;15.90;1.00;;;;;;10320147;28;20205;-77
2022/07/08 21:46:24;;;;;;;4.00;1.70;;;15.80;1.00;;;;;;10318802;28;20217;-77
2022/07/08 21:51:45;;;;;;;6.57;1.88;;;15.60;1.00;;;;;;10319557;28;20488;-77
2022/07/08 21:57:07;;;;;;;6.45;2.05;;;15.50;1.00;;;;;;10349473;28;20496;-77
2022/07/08 22:02:28;;;;;;;2.42;1.70;;;15.50;1.00;;;;;;10357389;28;20200;-77
2022/07/08 22:07:50;;;;;;;3.15;1.67;;;15.40;8.80;;;;;;10358875;28;20223;-76
2022/07/08 22:13:11;;;;;;;2.97;1.83;;;15.40;21.20;;;;;;10403422;28;20354;-77
2022/07/08 22:18:33;;;;;;;4.63;1.70;;;15.40;46.00;;;;;;10399376;28;20202;-77
2022/07/08 22:23:55;;;;;;;4.30;1.88;;;15.30;57.10;;;;;;10400819;28;20192;-77
2022/07/08 22:29:16;;;;;;;4.82;1.42;;;15.30;59.80;;;;;;10397963;28;20235;-78
2022/07/08 22:34:38;;;;;;;4.70;1.90;;;15.20;82.30;;;;;;10377505;28;20193;-78
2022/07/08 22:40:02;;;;;;;4.20;1.70;;;15.10;92.60;;;;;;10316903;28;20252;-78
2022/07/08 22:45:24;;;;;;;3.05;1.55;;;15.10;99.90;;;;;;10317491;28;20200;-77
2022/07/08 22:50:45;;;;;;;2.08;1.45;;;15.10;99.90;;;;;;10301782;28;20409;-77
2022/07/08 22:56:07;;;;;;;2.60;1.58;;;15.10;99.90;;;;;;10319887;28;20503;-77
2022/07/08 23:01:28;;;;;;;1.75;1.23;;;15.10;99.90;;;;;;10356344;28;20219;-77
2022/07/08 23:06:49;;;;;;;3.05;1.48;;;15.10;99.90;;;;;;10346240;28;20211;-77
2022/07/08 23:12:11;;;;;;;3.90;1.77;;;15.20;99.90;;;;;;10397436;28;20200;-77
2022/07/08 23:17:33;;;;;;;3.38;1.70;;;15.20;99.90;;;;;;10410121;28;20249;-77
2022/07/08 23:22:54;;;;;;;1.80;1.33;;;15.30;99.90;;;;;;10382375;28;20209;-77
2022/07/08 23:28:16;;;;;;;1.77;1.08;;;15.40;99.90;;;;;;10396980;28;20237;-78
2022/07/08 23:33:38;;;;;;;2.50;1.40;;;15.50;99.90;;;;;;10391454;28;20188;-78
2022/07/08 23:38:59;;;;;;;3.72;1.40;;;15.50;99.90;;;;;;10354952;28;20508;-78
2022/07/08 23:44:21;;;;;;;4.57;1.65;;;15.50;99.90;;;;;;10356078;28;20193;-77
2022/07/08 23:49:42;;;;;;;4.28;1.40;;;15.50;99.90;;;;;;10354227;28;20252;-77
2022/07/08 23:55:04;;;;;;;7.82;1.50;;;15.60;99.90;;;;;;10368379;28;20452;-76
